Beda, AL

3:23 PM CST on December 03, 2016 (GMT -0600)
RAWS | | Change Station

Elev 274 ft 31.09 °N, 86.55 °W | Updated 37 minutes ago

Overcast
Overcast
62.0 °F
Feels Like 62.0 °F
N
3.0
Wind Variable Wind from NE
Gusts 8.0 mph

Today
High -- | Low -- °F
--% Chance of Precip.
Yesterday
High -- | Low -- °F
Precip. -- in
Pressure 30.15 in
Visibility 10.0 miles
Clouds Overcast 6000 ft
Dew Point 36.0 °F
Humidity 38%
Rainfall in
Snow Depth Not available.
6:28 AM 4:43 PM
Waxing Crescent, 17% visible
METAR K0J4 032058Z AUTO 05009KT 10SM OVC060 16/01 A3015 RMK AO2 SLP209 T01610011 56011 $
Pressure 30.15 in
Visibility 10.0 miles
Clouds Overcast 6000 ft
Dew Point 36.0 °F
Humidity 38%
Rainfall in
Snow Depth Not available.
6:28 AM 4:43 PM
Waxing Crescent, 17% visible
METAR K0J4 032058Z AUTO 05009KT 10SM OVC060 16/01 A3015 RMK AO2 SLP209 T01610011 56011 $

10-Day Weather Forecast

Almanac

Astronomy

Dec. 03, 2016 Rise Set
Actual Time
Civil Twilight
Nautical Twilight
Astronomical Twilight
Moon
Length of Visible Light
Length of Day
Tomorrow will be .
, % of the Moon is Illuminated

Today's Extremes

State Highs State Lows

Community

WunderPhotos

Upload Photos

1,955,498 photos uploaded!

WunderBlog® & News

Nearby

Air Quality

  Air Quality AQ Index Pollutant
Not available.

Snow Depth

Station Depth Elevation

Earthquake Activity

City Distance Mag. Time & Date
Minimum magnitude displayed is 2.5.

Coastal Water Temperatures

Place Temperature

Stations

Nearby Weather Stations

Station Location Temp. Windchill Dew Point Humidity Wind Precip. Elev Updated Type
                   

Watches & Warnings

There are currently no watches in effect.